sensor_id;sensor_type;location;lat;lon;timestamp;P1;durP1;ratioP1;P2;durP2;ratioP2
74229;SDS011;62589;12.568;99.958;2023-02-01T00:02:12;30.38;;;22.88;;
74229;SDS011;62589;12.568;99.958;2023-02-01T00:04:39;31.35;;;23.48;;
74229;SDS011;62589;12.568;99.958;2023-02-01T00:07:05;36.63;;;24.98;;
74229;SDS011;62589;12.568;99.958;2023-02-01T00:09:32;34.88;;;25.52;;
74229;SDS011;62589;12.568;99.958;2023-02-01T00:11:58;36.58;;;27.38;;
74229;SDS011;62589;12.568;99.958;2023-02-01T00:14:27;36.53;;;26.27;;
74229;SDS011;62589;12.568;99.958;2023-02-01T00:16:54;40.42;;;26.38;;
74229;SDS011;62589;12.568;99.958;2023-02-01T00:19:20;37.08;;;26.10;;
74229;SDS011;62589;12.568;99.958;2023-02-01T00:21:47;35.88;;;25.83;;
74229;SDS011;62589;12.568;99.958;2023-02-01T00:24:13;33.53;;;24.00;;
74229;SDS011;62589;12.568;99.958;2023-02-01T00:26:41;34.15;;;24.10;;
74229;SDS011;62589;12.568;99.958;2023-02-01T00:29:13;32.63;;;25.33;;
74229;SDS011;62589;12.568;99.958;2023-02-01T00:31:42;40.45;;;26.30;;
74229;SDS011;62589;12.568;99.958;2023-02-01T00:34:13;36.00;;;25.67;;
74229;SDS011;62589;12.568;99.958;2023-02-01T00:36:41;35.22;;;26.63;;
74229;SDS011;62589;12.568;99.958;2023-02-01T00:39:09;33.42;;;25.45;;
74229;SDS011;62589;12.568;99.958;2023-02-01T00:41:38;34.85;;;25.92;;
74229;SDS011;62589;12.568;99.958;2023-02-01T00:44:17;35.60;;;26.92;;
74229;SDS011;62589;12.568;99.958;2023-02-01T00:47:03;40.17;;;27.75;;
74229;SDS011;62589;12.568;99.958;2023-02-01T00:49:30;32.95;;;26.35;;
74229;SDS011;62589;12.568;99.958;2023-02-01T00:51:56;39.50;;;26.55;;
74229;SDS011;62589;12.568;99.958;2023-02-01T00:54:23;35.20;;;26.30;;
74229;SDS011;62589;12.568;99.958;2023-02-01T00:56:50;35.75;;;24.38;;
74229;SDS011;62589;12.568;99.958;2023-02-01T00:59:16;39.88;;;26.50;;
74229;SDS011;62589;12.568;99.958;2023-02-01T01:01:42;35.95;;;25.50;;
74229;SDS011;62589;12.568;99.958;2023-02-01T01:04:09;35.45;;;25.08;;
74229;SDS011;62589;12.568;99.958;2023-02-01T01:06:35;40.05;;;25.75;;
74229;SDS011;62589;12.568;99.958;2023-02-01T01:09:04;32.38;;;23.65;;
74229;SDS011;62589;12.568;99.958;2023-02-01T01:11:33;32.47;;;24.17;;
74229;SDS011;62589;12.568;99.958;2023-02-01T01:14:03;37.40;;;24.73;;
74229;SDS011;62589;12.568;99.958;2023-02-01T01:16:32;37.30;;;25.65;;
74229;SDS011;62589;12.568;99.958;2023-02-01T01:18:59;35.50;;;25.20;;
74229;SDS011;62589;12.568;99.958;2023-02-01T01:21:26;32.28;;;24.65;;
74229;SDS011;62589;12.568;99.958;2023-02-01T01:23:53;31.83;;;24.65;;
74229;SDS011;62589;12.568;99.958;2023-02-01T01:26:21;34.55;;;24.90;;
74229;SDS011;62589;12.568;99.958;2023-02-01T01:28:49;32.63;;;24.00;;
74229;SDS011;62589;12.568;99.958;2023-02-01T01:31:17;33.90;;;25.52;;
74229;SDS011;62589;12.568;99.958;2023-02-01T01:33:47;31.50;;;24.05;;
74229;SDS011;62589;12.568;99.958;2023-02-01T01:36:16;32.17;;;24.65;;
74229;SDS011;62589;12.568;99.958;2023-02-01T01:38:44;32.85;;;24.92;;
74229;SDS011;62589;12.568;99.958;2023-02-01T01:41:15;38.35;;;26.05;;
74229;SDS011;62589;12.568;99.958;2023-02-01T01:43:52;38.88;;;26.77;;
74229;SDS011;62589;12.568;99.958;2023-02-01T01:46:23;36.00;;;26.00;;
74229;SDS011;62589;12.568;99.958;2023-02-01T01:48:59;42.80;;;28.42;;
74229;SDS011;62589;12.568;99.958;2023-02-01T01:51:42;37.03;;;28.25;;
74229;SDS011;62589;12.568;99.958;2023-02-01T01:57:04;42.65;;;31.88;;
74229;SDS011;62589;12.568;99.958;2023-02-01T01:59:41;40.75;;;32.30;;
74229;SDS011;62589;12.568;99.958;2023-02-01T02:02:12;43.58;;;34.15;;
74229;SDS011;62589;12.568;99.958;2023-02-01T02:04:39;50.13;;;33.80;;
74229;SDS011;62589;12.568;99.958;2023-02-01T02:07:25;40.90;;;33.17;;
74229;SDS011;62589;12.568;99.958;2023-02-01T02:09:56;42.97;;;31.90;;
74229;SDS011;62589;12.568;99.958;2023-02-01T02:12:26;44.25;;;32.13;;
74229;SDS011;62589;12.568;99.958;2023-02-01T02:14:56;45.25;;;31.40;;
74229;SDS011;62589;12.568;99.958;2023-02-01T02:26:22;40.60;;;29.38;;
74229;SDS011;62589;12.568;99.958;2023-02-01T02:29:15;44.67;;;30.05;;
74229;SDS011;62589;12.568;99.958;2023-02-01T02:35:13;38.25;;;26.98;;
74229;SDS011;62589;12.568;99.958;2023-02-01T02:40:54;40.58;;;29.55;;
74229;SDS011;62589;12.568;99.958;2023-02-01T02:43:47;48.65;;;30.83;;
74229;SDS011;62589;12.568;99.958;2023-02-01T02:46:36;41.40;;;33.30;;
74229;SDS011;62589;12.568;99.958;2023-02-01T02:52:36;50.28;;;38.55;;
74229;SDS011;62589;12.568;99.958;2023-02-01T02:55:24;54.63;;;39.55;;
74229;SDS011;62589;12.568;99.958;2023-02-01T02:57:54;51.28;;;39.47;;
74229;SDS011;62589;12.568;99.958;2023-02-01T03:00:35;54.40;;;41.53;;
74229;SDS011;62589;12.568;99.958;2023-02-01T03:03:16;49.78;;;38.90;;
74229;SDS011;62589;12.568;99.958;2023-02-01T03:05:55;51.65;;;38.70;;
74229;SDS011;62589;12.568;99.958;2023-02-01T03:08:26;53.53;;;39.25;;
74229;SDS011;62589;12.568;99.958;2023-02-01T03:11:04;49.88;;;38.22;;
74229;SDS011;62589;12.568;99.958;2023-02-01T03:13:42;56.30;;;39.45;;
74229;SDS011;62589;12.568;99.958;2023-02-01T03:16:24;51.53;;;38.92;;
74229;SDS011;62589;12.568;99.958;2023-02-01T03:19:13;50.30;;;38.20;;
74229;SDS011;62589;12.568;99.958;2023-02-01T03:21:53;57.95;;;40.00;;
74229;SDS011;62589;12.568;99.958;2023-02-01T03:24:31;54.55;;;39.53;;
74229;SDS011;62589;12.568;99.958;2023-02-01T03:27:13;50.33;;;37.47;;
74229;SDS011;62589;12.568;99.958;2023-02-01T03:29:59;51.08;;;36.88;;
74229;SDS011;62589;12.568;99.958;2023-02-01T03:32:35;53.33;;;38.42;;
74229;SDS011;62589;12.568;99.958;2023-02-01T03:35:15;47.80;;;35.92;;
74229;SDS011;62589;12.568;99.958;2023-02-01T03:37:42;55.70;;;37.70;;
74229;SDS011;62589;12.568;99.958;2023-02-01T03:40:08;46.95;;;36.25;;
74229;SDS011;62589;12.568;99.958;2023-02-01T03:42:43;46.67;;;35.90;;
74229;SDS011;62589;12.568;99.958;2023-02-01T03:45:31;49.58;;;36.83;;
74229;SDS011;62589;12.568;99.958;2023-02-01T03:48:05;54.17;;;37.88;;
74229;SDS011;62589;12.568;99.958;2023-02-01T03:50:33;50.20;;;37.80;;
74229;SDS011;62589;12.568;99.958;2023-02-01T03:53:11;51.15;;;38.88;;
74229;SDS011;62589;12.568;99.958;2023-02-01T03:55:42;55.78;;;40.17;;
74229;SDS011;62589;12.568;99.958;2023-02-01T03:58:09;56.35;;;39.63;;
74229;SDS011;62589;12.568;99.958;2023-02-01T04:00:39;53.50;;;41.78;;
74229;SDS011;62589;12.568;99.958;2023-02-01T04:03:06;59.13;;;41.67;;
74229;SDS011;62589;12.568;99.958;2023-02-01T04:05:33;56.60;;;38.90;;
74229;SDS011;62589;12.568;99.958;2023-02-01T04:07:59;62.70;;;40.08;;
74229;SDS011;62589;12.568;99.958;2023-02-01T04:10:26;48.53;;;40.58;;
74229;SDS011;62589;12.568;99.958;2023-02-01T04:12:53;52.05;;;41.15;;
74229;SDS011;62589;12.568;99.958;2023-02-01T04:15:19;52.75;;;40.17;;
74229;SDS011;62589;12.568;99.958;2023-02-01T04:17:45;52.47;;;39.03;;
74229;SDS011;62589;12.568;99.958;2023-02-01T04:20:15;53.08;;;39.60;;
74229;SDS011;62589;12.568;99.958;2023-02-01T04:22:41;52.42;;;39.35;;
74229;SDS011;62589;12.568;99.958;2023-02-01T04:25:08;51.78;;;38.75;;
74229;SDS011;62589;12.568;99.958;2023-02-01T04:27:35;159.55;;;144.13;;
74229;SDS011;62589;12.568;99.958;2023-02-01T04:30:02;55.42;;;39.38;;
74229;SDS011;62589;12.568;99.958;2023-02-01T04:32:29;55.08;;;37.63;;
74229;SDS011;62589;12.568;99.958;2023-02-01T04:34:58;51.30;;;36.40;;
74229;SDS011;62589;12.568;99.958;2023-02-01T04:37:25;54.95;;;36.92;;
74229;SDS011;62589;12.568;99.958;2023-02-01T04:39:51;51.08;;;36.78;;
74229;SDS011;62589;12.568;99.958;2023-02-01T04:42:18;46.33;;;35.45;;
74229;SDS011;62589;12.568;99.958;2023-02-01T04:44:53;52.50;;;37.03;;
74229;SDS011;62589;12.568;99.958;2023-02-01T04:47:20;49.50;;;35.38;;
74229;SDS011;62589;12.568;99.958;2023-02-01T04:49:46;47.53;;;34.72;;
74229;SDS011;62589;12.568;99.958;2023-02-01T04:52:12;53.00;;;37.08;;
74229;SDS011;62589;12.568;99.958;2023-02-01T04:54:39;49.45;;;35.85;;
74229;SDS011;62589;12.568;99.958;2023-02-01T04:57:05;45.35;;;35.53;;
74229;SDS011;62589;12.568;99.958;2023-02-01T04:59:31;53.22;;;35.55;;
74229;SDS011;62589;12.568;99.958;2023-02-01T05:01:58;48.67;;;34.47;;
74229;SDS011;62589;12.568;99.958;2023-02-01T05:04:24;56.28;;;36.13;;
74229;SDS011;62589;12.568;99.958;2023-02-01T05:06:50;49.97;;;35.83;;
74229;SDS011;62589;12.568;99.958;2023-02-01T05:09:20;54.33;;;37.30;;
74229;SDS011;62589;12.568;99.958;2023-02-01T05:11:52;50.83;;;35.70;;
74229;SDS011;62589;12.568;99.958;2023-02-01T05:14:30;47.88;;;35.03;;
74229;SDS011;62589;12.568;99.958;2023-02-01T05:16:57;46.55;;;34.25;;
74229;SDS011;62589;12.568;99.958;2023-02-01T05:19:23;47.30;;;34.47;;
74229;SDS011;62589;12.568;99.958;2023-02-01T05:21:49;42.55;;;33.25;;
74229;SDS011;62589;12.568;99.958;2023-02-01T05:24:15;56.00;;;33.85;;
74229;SDS011;62589;12.568;99.958;2023-02-01T05:26:46;49.45;;;34.00;;
74229;SDS011;62589;12.568;99.958;2023-02-01T05:29:13;40.03;;;32.13;;
74229;SDS011;62589;12.568;99.958;2023-02-01T05:31:41;41.25;;;30.00;;
74229;SDS011;62589;12.568;99.958;2023-02-01T05:34:09;45.38;;;31.70;;
74229;SDS011;62589;12.568;99.958;2023-02-01T05:36:36;44.70;;;31.63;;
74229;SDS011;62589;12.568;99.958;2023-02-01T05:39:03;40.30;;;32.28;;
74229;SDS011;62589;12.568;99.958;2023-02-01T05:41:29;47.08;;;33.35;;
74229;SDS011;62589;12.568;99.958;2023-02-01T05:43:56;40.83;;;30.98;;
74229;SDS011;62589;12.568;99.958;2023-02-01T05:46:22;43.17;;;30.15;;
74229;SDS011;62589;12.568;99.958;2023-02-01T05:48:48;48.33;;;33.42;;
74229;SDS011;62589;12.568;99.958;2023-02-01T05:51:15;41.80;;;29.98;;
74229;SDS011;62589;12.568;99.958;2023-02-01T05:53:41;43.83;;;31.40;;
74229;SDS011;62589;12.568;99.958;2023-02-01T05:56:07;46.03;;;32.13;;
74229;SDS011;62589;12.568;99.958;2023-02-01T05:58:34;47.08;;;31.60;;
74229;SDS011;62589;12.568;99.958;2023-02-01T06:01:00;44.80;;;32.03;;
74229;SDS011;62589;12.568;99.958;2023-02-01T06:03:27;40.08;;;31.13;;
74229;SDS011;62589;12.568;99.958;2023-02-01T06:05:54;44.97;;;31.17;;
74229;SDS011;62589;12.568;99.958;2023-02-01T06:08:20;41.30;;;31.15;;
74229;SDS011;62589;12.568;99.958;2023-02-01T06:10:49;44.72;;;31.90;;
74229;SDS011;62589;12.568;99.958;2023-02-01T06:13:15;43.38;;;31.83;;
74229;SDS011;62589;12.568;99.958;2023-02-01T06:15:42;40.08;;;29.90;;
74229;SDS011;62589;12.568;99.958;2023-02-01T06:18:09;42.88;;;29.75;;
74229;SDS011;62589;12.568;99.958;2023-02-01T06:20:35;46.60;;;31.58;;
74229;SDS011;62589;12.568;99.958;2023-02-01T06:23:01;43.22;;;30.88;;
74229;SDS011;62589;12.568;99.958;2023-02-01T06:25:30;46.03;;;30.27;;
74229;SDS011;62589;12.568;99.958;2023-02-01T06:27:59;46.30;;;30.50;;
74229;SDS011;62589;12.568;99.958;2023-02-01T06:30:26;47.95;;;33.92;;
74229;SDS011;62589;12.568;99.958;2023-02-01T06:32:53;47.45;;;31.48;;
74229;SDS011;62589;12.568;99.958;2023-02-01T06:35:19;46.08;;;33.45;;
74229;SDS011;62589;12.568;99.958;2023-02-01T06:37:46;43.10;;;31.13;;
74229;SDS011;62589;12.568;99.958;2023-02-01T06:40:12;44.70;;;28.58;;
74229;SDS011;62589;12.568;99.958;2023-02-01T06:42:39;40.25;;;30.60;;
74229;SDS011;62589;12.568;99.958;2023-02-01T06:45:05;44.13;;;31.05;;
74229;SDS011;62589;12.568;99.958;2023-02-01T06:47:33;42.95;;;31.42;;
74229;SDS011;62589;12.568;99.958;2023-02-01T06:49:59;40.28;;;29.85;;
74229;SDS011;62589;12.568;99.958;2023-02-01T06:52:25;43.03;;;29.67;;
74229;SDS011;62589;12.568;99.958;2023-02-01T06:54:52;45.40;;;30.60;;
74229;SDS011;62589;12.568;99.958;2023-02-01T06:57:18;47.78;;;35.08;;
74229;SDS011;62589;12.568;99.958;2023-02-01T06:59:44;42.95;;;32.97;;
74229;SDS011;62589;12.568;99.958;2023-02-01T07:02:11;45.67;;;32.60;;
74229;SDS011;62589;12.568;99.958;2023-02-01T07:04:37;48.47;;;33.22;;
74229;SDS011;62589;12.568;99.958;2023-02-01T07:07:04;52.88;;;34.58;;
74229;SDS011;62589;12.568;99.958;2023-02-01T07:09:30;43.20;;;32.70;;
74229;SDS011;62589;12.568;99.958;2023-02-01T07:11:56;41.67;;;31.67;;
74229;SDS011;62589;12.568;99.958;2023-02-01T07:14:23;45.40;;;32.22;;
74229;SDS011;62589;12.568;99.958;2023-02-01T07:16:49;43.05;;;32.72;;
74229;SDS011;62589;12.568;99.958;2023-02-01T07:19:16;47.95;;;32.28;;
74229;SDS011;62589;12.568;99.958;2023-02-01T07:21:42;44.33;;;32.45;;
74229;SDS011;62589;12.568;99.958;2023-02-01T07:24:09;43.58;;;31.98;;
74229;SDS011;62589;12.568;99.958;2023-02-01T07:26:35;41.92;;;30.98;;
74229;SDS011;62589;12.568;99.958;2023-02-01T07:29:01;47.45;;;35.63;;
74229;SDS011;62589;12.568;99.958;2023-02-01T07:31:28;41.35;;;29.67;;
74229;SDS011;62589;12.568;99.958;2023-02-01T07:33:54;41.45;;;29.75;;
74229;SDS011;62589;12.568;99.958;2023-02-01T07:36:21;39.35;;;29.48;;
74229;SDS011;62589;12.568;99.958;2023-02-01T07:38:48;39.75;;;28.67;;
74229;SDS011;62589;12.568;99.958;2023-02-01T07:41:14;41.72;;;28.02;;
74229;SDS011;62589;12.568;99.958;2023-02-01T07:43:41;43.33;;;28.73;;
74229;SDS011;62589;12.568;99.958;2023-02-01T07:46:09;40.15;;;28.90;;
74229;SDS011;62589;12.568;99.958;2023-02-01T07:48:36;39.63;;;28.15;;
74229;SDS011;62589;12.568;99.958;2023-02-01T07:51:08;37.25;;;27.77;;
74229;SDS011;62589;12.568;99.958;2023-02-01T07:53:36;32.03;;;26.27;;
74229;SDS011;62589;12.568;99.958;2023-02-01T07:56:04;39.78;;;28.73;;
74229;SDS011;62589;12.568;99.958;2023-02-01T07:58:36;42.03;;;28.55;;
74229;SDS011;62589;12.568;99.958;2023-02-01T08:01:02;41.10;;;27.95;;
74229;SDS011;62589;12.568;99.958;2023-02-01T08:03:40;45.40;;;28.55;;
74229;SDS011;62589;12.568;99.958;2023-02-01T08:06:06;40.47;;;27.75;;
74229;SDS011;62589;12.568;99.958;2023-02-01T08:08:33;39.33;;;26.88;;
74229;SDS011;62589;12.568;99.958;2023-02-01T08:11:00;41.67;;;29.45;;
74229;SDS011;62589;12.568;99.958;2023-02-01T08:13:27;37.95;;;29.45;;
74229;SDS011;62589;12.568;99.958;2023-02-01T08:15:57;43.90;;;30.35;;
74229;SDS011;62589;12.568;99.958;2023-02-01T08:18:25;42.22;;;31.10;;
74229;SDS011;62589;12.568;99.958;2023-02-01T08:20:52;46.05;;;32.70;;
74229;SDS011;62589;12.568;99.958;2023-02-01T08:23:19;47.40;;;34.38;;
74229;SDS011;62589;12.568;99.958;2023-02-01T08:25:46;63.35;;;42.25;;
74229;SDS011;62589;12.568;99.958;2023-02-01T08:28:12;60.03;;;40.90;;
74229;SDS011;62589;12.568;99.958;2023-02-01T08:30:39;52.05;;;37.83;;
74229;SDS011;62589;12.568;99.958;2023-02-01T08:33:07;47.10;;;34.53;;
74229;SDS011;62589;12.568;99.958;2023-02-01T08:35:34;50.95;;;37.67;;
74229;SDS011;62589;12.568;99.958;2023-02-01T08:38:02;54.85;;;38.90;;
74229;SDS011;62589;12.568;99.958;2023-02-01T08:40:32;56.95;;;42.75;;
74229;SDS011;62589;12.568;99.958;2023-02-01T08:42:59;72.15;;;52.55;;
74229;SDS011;62589;12.568;99.958;2023-02-01T08:45:27;64.93;;;48.80;;
74229;SDS011;62589;12.568;99.958;2023-02-01T08:47:58;71.97;;;49.30;;
74229;SDS011;62589;12.568;99.958;2023-02-01T08:50:24;74.65;;;53.35;;
74229;SDS011;62589;12.568;99.958;2023-02-01T08:52:51;72.72;;;52.05;;
74229;SDS011;62589;12.568;99.958;2023-02-01T08:55:18;81.68;;;59.10;;
74229;SDS011;62589;12.568;99.958;2023-02-01T08:57:45;77.93;;;55.78;;
74229;SDS011;62589;12.568;99.958;2023-02-01T09:00:12;71.47;;;52.75;;
74229;SDS011;62589;12.568;99.958;2023-02-01T09:02:40;78.18;;;52.65;;
74229;SDS011;62589;12.568;99.958;2023-02-01T09:05:07;75.82;;;54.25;;
74229;SDS011;62589;12.568;99.958;2023-02-01T09:07:34;82.22;;;60.33;;
74229;SDS011;62589;12.568;99.958;2023-02-01T09:10:01;91.68;;;65.78;;
74229;SDS011;62589;12.568;99.958;2023-02-01T09:12:28;80.93;;;58.33;;
74229;SDS011;62589;12.568;99.958;2023-02-01T09:14:57;87.75;;;66.57;;
74229;SDS011;62589;12.568;99.958;2023-02-01T09:17:26;89.68;;;65.32;;
74229;SDS011;62589;12.568;99.958;2023-02-01T09:19:53;96.32;;;66.50;;
74229;SDS011;62589;12.568;99.958;2023-02-01T09:22:19;94.60;;;67.53;;
74229;SDS011;62589;12.568;99.958;2023-02-01T09:24:46;96.80;;;69.28;;
74229;SDS011;62589;12.568;99.958;2023-02-01T09:27:12;94.47;;;69.90;;
74229;SDS011;62589;12.568;99.958;2023-02-01T09:29:39;91.53;;;64.40;;
74229;SDS011;62589;12.568;99.958;2023-02-01T09:32:05;92.47;;;68.75;;
74229;SDS011;62589;12.568;99.958;2023-02-01T09:34:32;104.20;;;77.22;;
74229;SDS011;62589;12.568;99.958;2023-02-01T09:36:59;82.15;;;64.40;;
74229;SDS011;62589;12.568;99.958;2023-02-01T09:39:26;86.50;;;66.32;;
74229;SDS011;62589;12.568;99.958;2023-02-01T09:45:02;89.97;;;63.70;;
74229;SDS011;62589;12.568;99.958;2023-02-01T09:47:46;96.30;;;68.40;;
74229;SDS011;62589;12.568;99.958;2023-02-01T09:50:21;82.68;;;59.30;;
74229;SDS011;62589;12.568;99.958;2023-02-01T09:52:59;84.93;;;57.85;;
74229;SDS011;62589;12.568;99.958;2023-02-01T09:55:46;71.93;;;49.70;;
74229;SDS011;62589;12.568;99.958;2023-02-01T10:01:19;80.20;;;56.40;;
74229;SDS011;62589;12.568;99.958;2023-02-01T10:03:47;75.57;;;56.95;;
74229;SDS011;62589;12.568;99.958;2023-02-01T10:06:21;86.72;;;61.33;;
74229;SDS011;62589;12.568;99.958;2023-02-01T10:12:08;96.40;;;71.85;;
74229;SDS011;62589;12.568;99.958;2023-02-01T10:15:12;94.25;;;69.78;;
74229;SDS011;62589;12.568;99.958;2023-02-01T10:21:10;99.03;;;72.88;;
74229;SDS011;62589;12.568;99.958;2023-02-01T10:24:09;109.25;;;81.00;;
74229;SDS011;62589;12.568;99.958;2023-02-01T10:26:47;87.40;;;64.40;;
74229;SDS011;62589;12.568;99.958;2023-02-01T10:29:24;89.05;;;66.88;;
74229;SDS011;62589;12.568;99.958;2023-02-01T10:31:56;86.82;;;67.03;;
74229;SDS011;62589;12.568;99.958;2023-02-01T10:34:28;101.82;;;77.28;;
74229;SDS011;62589;12.568;99.958;2023-02-01T10:39:55;100.40;;;72.28;;
74229;SDS011;62589;12.568;99.958;2023-02-01T10:42:25;95.68;;;71.35;;
74229;SDS011;62589;12.568;99.958;2023-02-01T10:44:57;99.03;;;73.00;;
74229;SDS011;62589;12.568;99.958;2023-02-01T10:47:26;88.60;;;66.88;;
74229;SDS011;62589;12.568;99.958;2023-02-01T10:49:58;82.03;;;65.18;;
74229;SDS011;62589;12.568;99.958;2023-02-01T10:52:57;85.70;;;64.40;;
74229;SDS011;62589;12.568;99.958;2023-02-01T10:55:40;78.95;;;60.80;;
74229;SDS011;62589;12.568;99.958;2023-02-01T10:58:16;82.90;;;61.08;;
74229;SDS011;62589;12.568;99.958;2023-02-01T11:00:53;86.90;;;62.42;;
74229;SDS011;62589;12.568;99.958;2023-02-01T11:03:31;77.40;;;57.58;;
74229;SDS011;62589;12.568;99.958;2023-02-01T11:06:13;78.55;;;58.20;;
74229;SDS011;62589;12.568;99.958;2023-02-01T11:08:57;71.63;;;55.17;;
74229;SDS011;62589;12.568;99.958;2023-02-01T11:11:26;72.97;;;56.85;;
74229;SDS011;62589;12.568;99.958;2023-02-01T11:13:58;76.22;;;55.85;;
74229;SDS011;62589;12.568;99.958;2023-02-01T11:16:39;71.65;;;53.45;;
74229;SDS011;62589;12.568;99.958;2023-02-01T11:19:06;64.13;;;50.70;;
74229;SDS011;62589;12.568;99.958;2023-02-01T11:21:53;61.45;;;47.47;;
74229;SDS011;62589;12.568;99.958;2023-02-01T11:27:14;57.60;;;46.38;;
74229;SDS011;62589;12.568;99.958;2023-02-01T11:29:47;56.25;;;45.63;;
74229;SDS011;62589;12.568;99.958;2023-02-01T11:32:26;54.67;;;42.85;;
74229;SDS011;62589;12.568;99.958;2023-02-01T11:34:58;51.90;;;42.53;;
74229;SDS011;62589;12.568;99.958;2023-02-01T11:37:29;50.97;;;40.00;;
74229;SDS011;62589;12.568;99.958;2023-02-01T11:40:00;48.08;;;40.25;;
74229;SDS011;62589;12.568;99.958;2023-02-01T11:42:29;51.10;;;41.80;;
74229;SDS011;62589;12.568;99.958;2023-02-01T11:47:46;53.53;;;39.63;;
74229;SDS011;62589;12.568;99.958;2023-02-01T11:50:17;44.95;;;37.75;;
74229;SDS011;62589;12.568;99.958;2023-02-01T11:52:50;45.00;;;36.92;;
74229;SDS011;62589;12.568;99.958;2023-02-01T12:07:18;38.30;;;31.17;;
74229;SDS011;62589;12.568;99.958;2023-02-01T12:10:12;40.10;;;30.92;;
74229;SDS011;62589;12.568;99.958;2023-02-01T12:13:15;38.03;;;28.90;;
74229;SDS011;62589;12.568;99.958;2023-02-01T12:19:11;40.80;;;28.17;;
74229;SDS011;62589;12.568;99.958;2023-02-01T12:22:06;31.90;;;25.55;;
74229;SDS011;62589;12.568;99.958;2023-02-01T12:28:14;30.30;;;25.60;;
74229;SDS011;62589;12.568;99.958;2023-02-01T12:33:58;30.08;;;24.40;;
74229;SDS011;62589;12.568;99.958;2023-02-01T12:37:00;31.65;;;24.85;;
74229;SDS011;62589;12.568;99.958;2023-02-01T12:42:59;32.75;;;24.15;;
74229;SDS011;62589;12.568;99.958;2023-02-01T12:45:32;36.03;;;26.15;;
74229;SDS011;62589;12.568;99.958;2023-02-01T12:51:15;36.10;;;28.33;;
74229;SDS011;62589;12.568;99.958;2023-02-01T12:56:48;37.20;;;29.48;;
74229;SDS011;62589;12.568;99.958;2023-02-01T13:05:24;54.75;;;36.50;;
74229;SDS011;62589;12.568;99.958;2023-02-01T13:08:00;55.60;;;38.85;;
74229;SDS011;62589;12.568;99.958;2023-02-01T13:19:06;67.72;;;45.15;;
74229;SDS011;62589;12.568;99.958;2023-02-01T13:22:00;62.40;;;45.10;;
74229;SDS011;62589;12.568;99.958;2023-02-01T13:24:44;65.80;;;46.90;;
74229;SDS011;62589;12.568;99.958;2023-02-01T13:27:17;66.85;;;48.58;;
74229;SDS011;62589;12.568;99.958;2023-02-01T13:32:48;69.63;;;49.38;;
74229;SDS011;62589;12.568;99.958;2023-02-01T13:35:38;72.78;;;50.58;;
74229;SDS011;62589;12.568;99.958;2023-02-01T13:38:36;78.60;;;55.55;;
74229;SDS011;62589;12.568;99.958;2023-02-01T13:41:29;81.15;;;56.90;;
74229;SDS011;62589;12.568;99.958;2023-02-01T13:44:11;83.50;;;57.50;;
74229;SDS011;62589;12.568;99.958;2023-02-01T13:46:56;82.90;;;56.63;;
74229;SDS011;62589;12.568;99.958;2023-02-01T13:49:28;81.47;;;55.70;;
74229;SDS011;62589;12.568;99.958;2023-02-01T13:51:58;79.10;;;54.97;;
74229;SDS011;62589;12.568;99.958;2023-02-01T13:54:30;75.38;;;53.55;;
74229;SDS011;62589;12.568;99.958;2023-02-01T13:56:59;72.57;;;52.92;;
74229;SDS011;62589;12.568;99.958;2023-02-01T14:05:03;73.22;;;52.17;;
74229;SDS011;62589;12.568;99.958;2023-02-01T14:07:33;70.45;;;48.83;;
74229;SDS011;62589;12.568;99.958;2023-02-01T14:10:45;63.80;;;47.88;;
74229;SDS011;62589;12.568;99.958;2023-02-01T14:13:04;61.65;;;45.58;;
74229;SDS011;62589;12.568;99.958;2023-02-01T14:15:37;60.35;;;45.88;;
74229;SDS011;62589;12.568;99.958;2023-02-01T14:21:08;62.90;;;45.58;;
74229;SDS011;62589;12.568;99.958;2023-02-01T14:24:03;68.95;;;47.47;;
74229;SDS011;62589;12.568;99.958;2023-02-01T14:26:50;66.47;;;49.20;;
74229;SDS011;62589;12.568;99.958;2023-02-01T14:32:17;66.63;;;46.78;;
74229;SDS011;62589;12.568;99.958;2023-02-01T14:34:50;67.70;;;48.17;;
74229;SDS011;62589;12.568;99.958;2023-02-01T14:40:00;59.28;;;44.85;;
74229;SDS011;62589;12.568;99.958;2023-02-01T14:42:46;66.85;;;46.35;;
74229;SDS011;62589;12.568;99.958;2023-02-01T14:51:09;71.72;;;48.67;;
74229;SDS011;62589;12.568;99.958;2023-02-01T14:53:40;68.88;;;50.50;;
74229;SDS011;62589;12.568;99.958;2023-02-01T14:56:11;71.40;;;51.75;;
74229;SDS011;62589;12.568;99.958;2023-02-01T15:01:28;74.38;;;54.45;;
74229;SDS011;62589;12.568;99.958;2023-02-01T15:09:33;82.03;;;57.08;;
74229;SDS011;62589;12.568;99.958;2023-02-01T15:12:17;81.70;;;58.67;;
74229;SDS011;62589;12.568;99.958;2023-02-01T15:17:48;81.93;;;59.67;;
74229;SDS011;62589;12.568;99.958;2023-02-01T15:20:21;77.05;;;58.00;;
74229;SDS011;62589;12.568;99.958;2023-02-01T15:22:54;84.32;;;60.45;;
74229;SDS011;62589;12.568;99.958;2023-02-01T15:25:34;87.40;;;62.67;;
74229;SDS011;62589;12.568;99.958;2023-02-01T15:28:02;78.32;;;59.35;;
74229;SDS011;62589;12.568;99.958;2023-02-01T15:30:33;82.68;;;58.60;;
74229;SDS011;62589;12.568;99.958;2023-02-01T15:33:05;89.80;;;63.33;;
74229;SDS011;62589;12.568;99.958;2023-02-01T15:35:46;91.75;;;64.63;;
74229;SDS011;62589;12.568;99.958;2023-02-01T15:44:04;79.25;;;56.03;;
74229;SDS011;62589;12.568;99.958;2023-02-01T15:46:41;76.97;;;59.20;;
74229;SDS011;62589;12.568;99.958;2023-02-01T15:51:59;72.72;;;52.00;;
74229;SDS011;62589;12.568;99.958;2023-02-01T15:54:31;71.55;;;54.67;;
74229;SDS011;62589;12.568;99.958;2023-02-01T15:57:07;78.03;;;56.85;;
74229;SDS011;62589;12.568;99.958;2023-02-01T15:59:43;73.88;;;54.80;;
74229;SDS011;62589;12.568;99.958;2023-02-01T16:04:59;76.03;;;54.58;;
74229;SDS011;62589;12.568;99.958;2023-02-01T16:07:28;69.18;;;53.40;;
74229;SDS011;62589;12.568;99.958;2023-02-01T16:09:58;72.50;;;54.47;;
74229;SDS011;62589;12.568;99.958;2023-02-01T16:12:33;70.57;;;52.03;;
74229;SDS011;62589;12.568;99.958;2023-02-01T16:15:16;70.03;;;53.65;;
74229;SDS011;62589;12.568;99.958;2023-02-01T16:17:42;68.30;;;50.55;;
74229;SDS011;62589;12.568;99.958;2023-02-01T16:20:11;65.05;;;51.55;;
74229;SDS011;62589;12.568;99.958;2023-02-01T16:22:37;68.18;;;51.78;;
74229;SDS011;62589;12.568;99.958;2023-02-01T16:25:04;64.72;;;49.08;;
74229;SDS011;62589;12.568;99.958;2023-02-01T16:27:31;64.85;;;50.08;;
74229;SDS011;62589;12.568;99.958;2023-02-01T16:29:57;68.93;;;51.45;;
74229;SDS011;62589;12.568;99.958;2023-02-01T16:32:24;75.68;;;54.75;;
74229;SDS011;62589;12.568;99.958;2023-02-01T16:34:51;68.88;;;52.80;;
74229;SDS011;62589;12.568;99.958;2023-02-01T16:37:19;68.90;;;54.08;;
74229;SDS011;62589;12.568;99.958;2023-02-01T16:39:47;70.10;;;53.67;;
74229;SDS011;62589;12.568;99.958;2023-02-01T16:42:14;67.45;;;53.88;;
74229;SDS011;62589;12.568;99.958;2023-02-01T16:44:41;73.78;;;54.22;;
74229;SDS011;62589;12.568;99.958;2023-02-01T16:47:16;68.78;;;53.03;;
74229;SDS011;62589;12.568;99.958;2023-02-01T16:49:44;71.90;;;53.60;;